createdAt,value
2022-10-11T00:01:46.833Z,11.82
2022-10-11T00:03:50.212Z,11.64
2022-10-11T00:05:54.653Z,11.54
2022-10-11T00:07:58.319Z,11.38
2022-10-11T00:10:03.158Z,11.35
2022-10-11T00:12:07.107Z,11.18
2022-10-11T00:14:10.551Z,11.24
2022-10-11T00:16:15.486Z,11.28
2022-10-11T00:18:18.781Z,11.31
2022-10-11T00:20:22.125Z,11.29
2022-10-11T00:22:25.604Z,11.33
2022-10-11T00:24:28.862Z,11.37
2022-10-11T00:26:33.575Z,11.45
2022-10-11T00:28:37.308Z,11.41
2022-10-11T00:30:44.310Z,11.40
2022-10-11T00:32:47.615Z,11.38
2022-10-11T00:34:50.964Z,11.30
2022-10-11T00:36:54.369Z,11.29
2022-10-11T00:38:57.682Z,11.25
2022-10-11T00:41:01.054Z,11.28
2022-10-11T00:43:12.652Z,11.26
2022-10-11T00:45:53.768Z,11.22
2022-10-11T00:48:01.441Z,11.24
2022-10-11T00:50:05.570Z,11.27
2022-10-11T00:52:16.375Z,11.27
2022-10-11T00:54:23.893Z,11.15
2022-10-11T00:56:32.015Z,11.15
2022-10-11T00:58:38.008Z,11.09
2022-10-11T01:00:41.316Z,11.06
2022-10-11T01:02:45.041Z,11.00
2022-10-11T01:04:54.380Z,10.96
2022-10-11T01:07:09.854Z,10.89
2022-10-11T01:09:14.648Z,10.79
2022-10-11T01:11:22.072Z,10.67
2022-10-11T01:13:37.465Z,10.58
2022-10-11T01:15:47.564Z,10.60
2022-10-11T01:17:58.935Z,10.37
2022-10-11T01:20:25.055Z,10.46
2022-10-11T01:22:52.250Z,10.56
2022-10-11T01:25:15.936Z,10.59
2022-10-11T01:27:44.081Z,10.63
2022-10-11T01:29:54.749Z,10.61
2022-10-11T01:32:08.283Z,10.69
2022-10-11T01:34:16.161Z,10.51
2022-10-11T01:36:27.948Z,10.59
2022-10-11T01:38:38.830Z,10.62
2022-10-11T01:40:48.267Z,10.57
2022-10-11T01:42:53.753Z,10.52
2022-10-11T01:44:59.246Z,10.56
2022-10-11T01:47:04.003Z,10.22
2022-10-11T01:49:07.822Z,10.58
2022-10-11T01:51:11.299Z,10.60
2022-10-11T01:53:40.973Z,10.50
2022-10-11T01:55:50.984Z,10.41
2022-10-11T01:58:15.150Z,10.28
2022-10-11T02:00:20.979Z,10.43
2022-10-11T02:02:38.950Z,10.20
2022-10-11T02:04:46.600Z,10.38
2022-10-11T02:06:58.128Z,10.28
2022-10-11T02:09:12.469Z,10.33
2022-10-11T02:11:22.084Z,10.32
2022-10-11T02:13:29.512Z,9.99
2022-10-11T02:15:36.055Z,10.32
2022-10-11T02:17:44.387Z,10.31
2022-10-11T02:19:51.130Z,10.17
2022-10-11T02:21:59.103Z,10.05
2022-10-11T02:24:07.620Z,10.02
2022-10-11T02:26:13.101Z,9.85
2022-10-11T02:28:22.470Z,9.89
2022-10-11T02:30:25.864Z,9.83
2022-10-11T02:32:31.718Z,9.83
2022-10-11T02:34:38.944Z,9.85
2022-10-11T02:36:49.032Z,9.92
2022-10-11T02:39:00.102Z,9.96
2022-10-11T02:41:12.673Z,10.05
2022-10-11T02:43:23.896Z,9.95
2022-10-11T02:45:32.587Z,9.78
2022-10-11T02:47:36.329Z,9.74
2022-10-11T02:49:41.167Z,9.64
2022-10-11T02:51:44.790Z,9.19
2022-10-11T02:53:48.246Z,9.59
2022-10-11T02:55:53.448Z,9.61
2022-10-11T02:57:56.728Z,9.57
2022-10-11T03:00:00.036Z,9.66
2022-10-11T03:02:03.375Z,9.65
2022-10-11T03:04:06.908Z,9.68
2022-10-11T03:06:11.721Z,9.70
2022-10-11T03:08:16.627Z,9.63
2022-10-11T03:10:19.998Z,9.52
2022-10-11T03:12:23.296Z,9.43
2022-10-11T03:14:26.641Z,9.58
2022-10-11T03:16:29.956Z,9.55
2022-10-11T03:18:33.252Z,9.64
2022-10-11T03:20:36.529Z,9.66
2022-10-11T03:22:41.222Z,9.64
2022-10-11T03:24:44.575Z,9.61
2022-10-11T03:26:47.836Z,9.46
2022-10-11T03:28:51.587Z,9.57
2022-10-11T03:30:55.104Z,9.38
2022-10-11T03:32:58.468Z,9.47
2022-10-11T03:35:01.879Z,9.52
2022-10-11T03:37:05.231Z,9.53
2022-10-11T03:39:09.962Z,9.40
2022-10-11T03:41:13.421Z,9.30
2022-10-11T03:43:17.200Z,9.26
2022-10-11T03:45:20.725Z,9.32
2022-10-11T03:47:24.900Z,9.27
2022-10-11T03:49:28.199Z,9.25
2022-10-11T03:51:32.247Z,9.36
2022-10-11T03:53:35.563Z,9.32
2022-10-11T03:55:41.051Z,9.14
2022-10-11T03:57:44.553Z,9.14
2022-10-11T03:59:48.625Z,9.17
2022-10-11T04:01:51.977Z,9.16
2022-10-11T04:03:56.554Z,9.01
2022-10-11T04:05:59.981Z,8.96
2022-10-11T04:08:04.650Z,8.83
2022-10-11T04:10:10.171Z,8.90
2022-10-11T04:12:14.887Z,8.97
2022-10-11T04:14:18.234Z,8.97
2022-10-11T04:16:21.508Z,8.96
2022-10-11T04:18:25.379Z,8.88
2022-10-11T04:20:29.026Z,8.87
2022-10-11T04:22:33.346Z,8.91
2022-10-11T04:24:36.750Z,8.91
2022-10-11T04:26:40.107Z,8.90
2022-10-11T04:28:44.969Z,8.83
2022-10-11T04:30:48.390Z,8.91
2022-10-11T04:32:51.684Z,9.08
2022-10-11T04:34:55.192Z,9.16
2022-10-11T04:36:58.685Z,9.23
2022-10-11T04:39:02.004Z,9.30
2022-10-11T04:41:09.196Z,9.39
2022-10-11T04:43:12.554Z,9.40
2022-10-11T04:45:17.458Z,9.24
2022-10-11T04:47:20.993Z,9.15
2022-10-11T04:49:24.893Z,8.99
2022-10-11T04:51:28.778Z,8.88
2022-10-11T04:53:32.180Z,8.79
2022-10-11T04:55:35.460Z,8.65
2022-10-11T04:57:38.788Z,8.60
2022-10-11T04:59:45.447Z,8.77
2022-10-11T05:01:52.605Z,8.78
2022-10-11T05:03:56.008Z,8.92
2022-10-11T05:06:04.514Z,9.00
2022-10-11T05:08:09.525Z,9.10
2022-10-11T05:10:12.921Z,9.12
2022-10-11T05:12:16.940Z,9.20
2022-10-11T05:14:20.288Z,9.26
2022-10-11T05:16:24.304Z,8.90
2022-10-11T05:18:29.358Z,9.27
2022-10-11T05:20:32.645Z,9.34
2022-10-11T05:22:35.929Z,9.31
2022-10-11T05:24:39.468Z,9.35
2022-10-11T05:26:42.957Z,9.35
2022-10-11T05:28:47.145Z,9.40
2022-10-11T05:30:50.760Z,9.49
2022-10-11T05:32:54.088Z,9.43
2022-10-11T05:34:58.867Z,9.38
2022-10-11T05:37:02.309Z,9.45
2022-10-11T05:39:05.647Z,9.45
2022-10-11T05:41:10.001Z,9.16
2022-10-11T05:43:13.412Z,9.46
2022-10-11T05:45:16.803Z,9.47
2022-10-11T05:47:20.346Z,9.55
2022-10-11T05:49:23.742Z,9.60
2022-10-11T05:51:28.436Z,9.41
2022-10-11T05:53:32.707Z,9.37
2022-10-11T05:55:39.947Z,9.29
2022-10-11T05:57:44.303Z,9.20
2022-10-11T05:59:47.687Z,9.22
2022-10-11T06:01:51.034Z,9.26
2022-10-11T06:03:55.806Z,9.37
2022-10-11T06:06:02.959Z,9.53
2022-10-11T06:08:09.979Z,9.54
2022-10-11T06:10:13.320Z,9.62
2022-10-11T06:12:17.208Z,9.74
2022-10-11T06:14:20.523Z,9.76
2022-10-11T06:16:23.886Z,9.82
2022-10-11T06:18:27.190Z,9.85
2022-10-11T06:20:30.512Z,9.84
2022-10-11T06:22:33.870Z,9.69
2022-10-11T06:24:38.652Z,9.62
2022-10-11T06:26:41.977Z,9.55
2022-10-11T06:28:45.533Z,9.46
2022-10-11T06:30:48.914Z,9.38
2022-10-11T06:32:52.231Z,9.33
2022-10-11T06:34:55.618Z,9.31
2022-10-11T06:36:58.953Z,9.32
2022-10-11T06:39:02.365Z,9.29
2022-10-11T06:41:17.111Z,9.19
2022-10-11T06:43:20.679Z,9.11
2022-10-11T06:45:24.030Z,9.06
2022-10-11T06:47:27.439Z,9.02
2022-10-11T06:49:30.745Z,9.13
2022-10-11T06:51:35.617Z,9.18
2022-10-11T06:53:39.093Z,9.08
2022-10-11T06:55:42.387Z,9.16
2022-10-11T06:57:47.076Z,9.15
2022-10-11T06:59:50.358Z,9.14
2022-10-11T07:01:53.727Z,9.21
2022-10-11T07:04:00.691Z,9.37
2022-10-11T07:06:05.797Z,9.40
2022-10-11T07:08:09.560Z,9.48
2022-10-11T07:10:12.846Z,9.35
2022-10-11T07:12:17.058Z,9.19
2022-10-11T07:14:21.728Z,9.13
2022-10-11T07:16:26.197Z,9.11
2022-10-11T07:18:29.546Z,9.02
2022-10-11T07:20:33.115Z,9.07
2022-10-11T07:22:36.600Z,9.06
2022-10-11T07:24:39.969Z,8.98
2022-10-11T07:26:43.341Z,8.93
2022-10-11T07:28:47.507Z,9.13
2022-10-11T07:30:52.707Z,8.96
2022-10-11T07:32:56.291Z,8.95
2022-10-11T07:34:59.636Z,8.70
2022-10-11T07:37:02.936Z,8.92
2022-10-11T07:39:07.930Z,9.07
2022-10-11T07:41:11.530Z,9.13
2022-10-11T07:43:15.439Z,9.00
2022-10-11T07:45:19.075Z,9.12
2022-10-11T07:47:24.030Z,9.16
2022-10-11T07:49:28.477Z,9.15
2022-10-11T07:51:31.802Z,9.31
2022-10-11T07:53:39.681Z,9.21
2022-10-11T07:55:42.977Z,9.27
2022-10-11T07:57:46.308Z,9.37
2022-10-11T07:59:50.451Z,9.54
2022-10-11T08:01:53.890Z,9.51
2022-10-11T08:03:59.341Z,9.40
2022-10-11T08:06:05.053Z,9.39
2022-10-11T08:08:11.441Z,9.49
2022-10-11T08:10:14.747Z,9.44
2022-10-11T08:12:18.087Z,9.32
2022-10-11T08:14:21.778Z,9.37
2022-10-11T08:16:25.423Z,9.37
2022-10-11T08:18:28.737Z,9.52
2022-10-11T08:20:33.419Z,9.38
2022-10-11T08:22:36.735Z,9.36
2022-10-11T08:24:40.075Z,9.45
2022-10-11T08:26:44.219Z,9.43
2022-10-11T08:28:47.701Z,9.44
2022-10-11T08:30:51.975Z,9.61
2022-10-11T08:32:55.310Z,9.44
2022-10-11T08:34:58.650Z,9.48
2022-10-11T08:37:03.413Z,9.58
2022-10-11T08:39:07.764Z,9.55
2022-10-11T08:41:29.347Z,9.58
2022-10-11T08:43:41.696Z,9.66
2022-10-11T08:45:51.297Z,9.76
2022-10-11T08:48:03.414Z,9.73
2022-10-11T08:50:08.978Z,9.34
2022-10-11T08:52:19.204Z,9.77
2022-10-11T08:54:31.369Z,9.86
2022-10-11T08:56:38.696Z,9.66
2022-10-11T08:58:47.715Z,9.76
2022-10-11T09:00:54.161Z,9.88
2022-10-11T09:03:09.581Z,9.86
2022-10-11T09:05:16.732Z,9.86
2022-10-11T09:07:34.112Z,9.85
2022-10-11T09:09:55.619Z,9.88
2022-10-11T09:12:11.228Z,9.84
2022-10-11T09:14:39.315Z,9.82
2022-10-11T09:16:54.545Z,10.14
2022-10-11T09:19:20.949Z,10.19
2022-10-11T09:21:41.980Z,10.34
2022-10-11T09:24:23.087Z,10.39
2022-10-11T09:26:29.852Z,10.41
2022-10-11T09:28:44.334Z,10.30
2022-10-11T09:30:50.234Z,10.31
2022-10-11T09:33:03.769Z,10.34
2022-10-11T09:35:13.513Z,10.46
2022-10-11T09:37:23.539Z,10.34
2022-10-11T09:39:31.253Z,10.40
2022-10-11T09:41:40.041Z,10.57
2022-10-11T09:43:48.439Z,10.53
2022-10-11T09:45:51.904Z,10.60
2022-10-11T09:47:58.102Z,10.67
2022-10-11T09:50:04.801Z,10.78
2022-10-11T09:52:16.449Z,10.87
2022-10-11T09:54:27.217Z,10.81
2022-10-11T09:56:34.626Z,10.90
2022-10-11T09:58:38.646Z,10.94
2022-10-11T10:00:42.011Z,10.83
2022-10-11T10:02:47.514Z,10.93
2022-10-11T10:05:16.346Z,11.03
2022-10-11T10:07:19.729Z,11.03
2022-10-11T10:09:28.426Z,11.10
2022-10-11T10:11:37.911Z,11.27
2022-10-11T10:13:47.770Z,11.35
2022-10-11T10:15:53.542Z,11.46
2022-10-11T10:17:57.395Z,11.49
2022-10-11T10:20:01.407Z,11.26
2022-10-11T10:22:04.768Z,11.31
2022-10-11T10:24:17.954Z,11.38
2022-10-11T10:26:23.285Z,11.08
2022-10-11T10:28:28.598Z,11.15
2022-10-11T10:30:35.576Z,11.37
2022-10-11T10:32:53.279Z,11.42
2022-10-11T10:35:03.978Z,11.98
2022-10-11T10:37:19.040Z,12.25
2022-10-11T10:39:31.793Z,12.64
2022-10-11T10:41:35.991Z,12.64
2022-10-11T10:43:42.800Z,12.90
2022-10-11T10:46:16.588Z,12.62
2022-10-11T10:48:48.155Z,12.56
2022-10-11T10:50:59.485Z,12.56
2022-10-11T10:53:16.963Z,12.70
2022-10-11T10:55:26.796Z,13.34
2022-10-11T10:57:37.384Z,13.49
2022-10-11T11:00:03.758Z,13.56
2022-10-11T11:02:39.010Z,13.98
2022-10-11T11:04:38.883Z,14.02
2022-10-11T11:06:50.703Z,14.11
2022-10-11T11:09:06.725Z,14.46
2022-10-11T11:11:26.219Z,15.03
2022-10-11T11:13:39.106Z,15.59
2022-10-11T11:15:47.604Z,15.99
2022-10-11T11:18:02.495Z,16.24
2022-10-11T11:20:24.666Z,16.38
2022-10-11T11:22:36.936Z,16.52
2022-10-11T11:24:48.446Z,16.68
2022-10-11T11:27:02.803Z,16.64
2022-10-11T11:29:25.679Z,16.49
2022-10-11T11:31:50.843Z,16.88
2022-10-11T11:34:04.019Z,16.92
2022-10-11T11:36:14.673Z,16.67
2022-10-11T11:38:29.347Z,16.72
2022-10-11T11:40:38.249Z,16.54
2022-10-11T11:42:46.359Z,16.75
2022-10-11T11:44:51.362Z,17.00
2022-10-11T11:47:01.364Z,16.98
2022-10-11T11:49:13.284Z,17.28
2022-10-11T11:51:21.021Z,17.48
2022-10-11T11:53:32.994Z,17.88
2022-10-11T11:55:44.397Z,18.11
2022-10-11T11:57:57.435Z,17.69
2022-10-11T12:00:06.269Z,17.70
2022-10-11T12:02:34.420Z,17.53
2022-10-11T12:04:42.066Z,17.74
2022-10-11T12:07:11.181Z,17.80
2022-10-11T12:09:21.557Z,17.93
2022-10-11T12:11:31.668Z,17.60
2022-10-11T12:13:39.673Z,17.25
2022-10-11T12:16:09.645Z,17.82
2022-10-11T12:18:18.213Z,18.20
2022-10-11T12:20:25.275Z,18.61
2022-10-11T12:22:58.197Z,19.18
2022-10-11T12:25:22.580Z,19.06
2022-10-11T12:27:40.643Z,18.15
2022-10-11T12:29:48.882Z,18.71
2022-10-11T12:32:14.064Z,18.71
2022-10-11T12:34:35.884Z,18.10
2022-10-11T12:36:41.229Z,17.86
2022-10-11T12:38:44.503Z,18.56
2022-10-11T12:40:49.474Z,18.28
2022-10-11T12:43:12.194Z,18.61
2022-10-11T12:45:35.409Z,19.11
2022-10-11T12:47:44.400Z,19.50
2022-10-11T12:50:00.031Z,19.15
2022-10-11T12:52:06.906Z,19.26
2022-10-11T12:54:31.029Z,19.32
2022-10-11T12:56:47.994Z,19.58
2022-10-11T12:58:51.370Z,19.88
2022-10-11T13:01:34.064Z,20.28
2022-10-11T13:03:41.298Z,20.15
2022-10-11T13:05:52.466Z,20.29
2022-10-11T13:08:00.081Z,20.56
2022-10-11T13:10:05.421Z,20.60
2022-10-11T13:12:14.512Z,20.63
2022-10-11T13:14:20.988Z,20.69
2022-10-11T13:16:27.017Z,20.84
2022-10-11T13:18:30.507Z,20.67
2022-10-11T13:20:38.775Z,20.44
2022-10-11T13:22:49.329Z,20.57
2022-10-11T13:24:57.071Z,20.94
2022-10-11T13:27:00.392Z,20.95
2022-10-11T13:29:03.821Z,20.55
2022-10-11T13:31:07.895Z,20.10
2022-10-11T13:33:20.388Z,19.07
2022-10-11T13:35:30.450Z,19.61
2022-10-11T13:37:43.443Z,20.03
2022-10-11T13:39:49.843Z,20.08
2022-10-11T13:41:53.545Z,20.55
2022-10-11T13:43:59.201Z,20.88
2022-10-11T13:46:05.062Z,20.67
2022-10-11T13:48:15.961Z,20.88
2022-10-11T13:50:30.598Z,20.88
2022-10-11T13:52:35.050Z,20.88
2022-10-11T13:55:09.100Z,21.27
2022-10-11T13:57:14.255Z,21.09
2022-10-11T13:59:21.650Z,20.70
2022-10-11T14:01:27.861Z,20.00
2022-10-11T14:03:39.992Z,19.61
2022-10-11T14:05:45.973Z,19.41
2022-10-11T14:07:49.362Z,18.79
2022-10-11T14:09:53.274Z,18.84
2022-10-11T14:12:30.018Z,19.03
2022-10-11T14:14:43.637Z,19.40
2022-10-11T14:16:56.544Z,19.63
2022-10-11T14:19:11.530Z,19.87
2022-10-11T14:21:30.876Z,20.40
2022-10-11T14:23:34.209Z,20.11
2022-10-11T14:25:37.569Z,20.41
2022-10-11T14:27:42.677Z,20.36
2022-10-11T14:30:00.433Z,20.78
2022-10-11T14:32:15.948Z,21.20
2022-10-11T14:34:22.003Z,21.31
2022-10-11T14:36:26.137Z,20.94
2022-10-11T14:38:29.576Z,20.98
2022-10-11T14:40:33.042Z,20.67
2022-10-11T14:42:36.324Z,20.72
2022-10-11T14:44:41.082Z,21.07
2022-10-11T14:46:45.188Z,21.30
2022-10-11T14:48:56.707Z,21.51
2022-10-11T14:51:03.619Z,21.50
2022-10-11T14:53:08.470Z,21.37
2022-10-11T14:55:11.866Z,21.41
2022-10-11T14:57:15.204Z,21.41
2022-10-11T14:59:22.041Z,21.47
2022-10-11T15:01:26.838Z,21.38
2022-10-11T15:03:31.715Z,21.61
2022-10-11T15:05:36.183Z,21.45
2022-10-11T15:07:39.517Z,21.05
2022-10-11T15:09:42.831Z,21.10
2022-10-11T15:11:46.126Z,21.04
2022-10-11T15:13:50.527Z,20.75
2022-10-11T15:15:53.805Z,20.55
2022-10-11T15:17:59.947Z,20.30
2022-10-11T15:20:08.361Z,20.24
2022-10-11T15:22:11.652Z,19.93
2022-10-11T15:24:15.669Z,19.70
2022-10-11T15:26:24.558Z,19.58
2022-10-11T15:28:31.318Z,19.39
2022-10-11T15:30:40.953Z,19.11
2022-10-11T15:32:46.575Z,19.09
2022-10-11T15:34:51.287Z,18.76
2022-10-11T15:36:54.644Z,18.61
2022-10-11T15:38:58.285Z,18.57
2022-10-11T15:41:01.972Z,18.48
2022-10-11T15:43:05.534Z,18.31
2022-10-11T15:45:09.954Z,17.89
2022-10-11T15:47:13.359Z,17.46
2022-10-11T15:49:17.492Z,17.60
2022-10-11T15:51:24.815Z,17.52
2022-10-11T15:53:31.213Z,17.41
2022-10-11T15:55:37.832Z,17.28
2022-10-11T15:57:41.118Z,17.22
2022-10-11T15:59:44.386Z,17.14
2022-10-11T16:01:50.644Z,17.02
2022-10-11T16:03:54.143Z,17.03
2022-10-11T16:06:03.863Z,17.01
2022-10-11T16:08:11.003Z,16.97
2022-10-11T16:10:14.455Z,16.82
2022-10-11T16:12:17.710Z,16.75
2022-10-11T16:14:21.041Z,16.76
2022-10-11T16:16:24.522Z,16.76
2022-10-11T16:18:32.651Z,16.71
2022-10-11T16:20:39.036Z,16.71
2022-10-11T16:22:42.917Z,16.68
2022-10-11T16:24:47.697Z,16.71
2022-10-11T16:26:51.028Z,16.66
2022-10-11T16:28:56.557Z,16.60
2022-10-11T16:31:01.505Z,16.63
2022-10-11T16:33:04.938Z,16.64
2022-10-11T16:35:09.403Z,16.58
2022-10-11T16:37:13.788Z,16.34
2022-10-11T16:39:19.477Z,16.43
2022-10-11T16:41:24.145Z,16.41
2022-10-11T16:43:27.594Z,16.42
2022-10-11T16:45:32.400Z,16.36
2022-10-11T16:47:35.861Z,16.33
2022-10-11T16:49:39.363Z,16.30
2022-10-11T16:51:42.849Z,16.25
2022-10-11T16:53:48.720Z,16.21
2022-10-11T16:55:52.372Z,16.15
2022-10-11T16:57:57.173Z,16.09
2022-10-11T17:00:00.516Z,16.02
2022-10-11T17:02:05.073Z,15.95
2022-10-11T17:04:08.816Z,15.89
2022-10-11T17:06:12.270Z,15.81
2022-10-11T17:08:15.543Z,15.73
2022-10-11T17:10:19.014Z,15.70
2022-10-11T17:12:24.304Z,15.56
2022-10-11T17:14:29.460Z,15.60
2022-10-11T17:16:33.017Z,15.55
2022-10-11T17:18:36.779Z,15.49
2022-10-11T17:20:40.100Z,15.46
2022-10-11T17:22:43.399Z,15.36
2022-10-11T17:24:47.576Z,15.32
2022-10-11T17:26:52.711Z,15.28
2022-10-11T17:28:58.332Z,15.20
2022-10-11T17:31:04.983Z,15.11
2022-10-11T17:33:08.955Z,15.07
2022-10-11T17:35:13.484Z,14.95
2022-10-11T17:37:16.823Z,14.91
2022-10-11T17:39:22.314Z,14.84
2022-10-11T17:41:30.880Z,14.73
2022-10-11T17:43:35.556Z,14.59
2022-10-11T17:45:38.937Z,14.66
2022-10-11T17:47:43.742Z,14.62
2022-10-11T17:49:47.319Z,14.53
2022-10-11T17:51:50.638Z,14.51
2022-10-11T17:53:54.853Z,14.47
2022-10-11T17:56:00.764Z,14.45
2022-10-11T17:58:04.343Z,14.39
2022-10-11T18:00:08.861Z,14.30
2022-10-11T18:02:12.244Z,14.21
2022-10-11T18:04:17.734Z,14.21
2022-10-11T18:06:21.021Z,14.19
2022-10-11T18:08:24.431Z,14.07
2022-10-11T18:10:28.471Z,13.88
2022-10-11T18:12:31.862Z,13.64
2022-10-11T18:14:35.219Z,13.79
2022-10-11T18:16:39.554Z,13.69
2022-10-11T18:18:44.237Z,13.53
2022-10-11T18:20:50.463Z,13.36
2022-10-11T18:22:54.335Z,13.35
2022-10-11T18:24:57.787Z,13.09
2022-10-11T18:27:01.158Z,12.64
2022-10-11T18:29:05.338Z,12.41
2022-10-11T18:31:12.881Z,12.36
2022-10-11T18:33:18.477Z,12.07
2022-10-11T18:35:21.782Z,12.23
2022-10-11T18:37:26.770Z,12.19
2022-10-11T18:39:30.103Z,12.33
2022-10-11T18:41:35.194Z,12.46
2022-10-11T18:43:38.778Z,12.56
2022-10-11T18:45:42.093Z,12.64
2022-10-11T18:47:45.487Z,12.58
2022-10-11T18:49:49.194Z,12.48
2022-10-11T18:51:52.476Z,12.53
2022-10-11T18:53:58.595Z,12.55
2022-10-11T18:56:03.019Z,12.61
2022-10-11T18:58:06.742Z,12.63
2022-10-11T19:00:30.795Z,12.62
2022-10-11T19:02:34.961Z,12.67
2022-10-11T19:04:39.721Z,12.67
2022-10-11T19:06:45.508Z,12.32
2022-10-11T19:08:51.298Z,12.07
2022-10-11T19:10:55.976Z,11.79
2022-10-11T19:12:59.457Z,11.74
2022-10-11T19:15:02.762Z,11.79
2022-10-11T19:17:06.694Z,11.53
2022-10-11T19:19:13.091Z,11.50
2022-10-11T19:21:16.480Z,11.35
2022-10-11T19:23:23.527Z,11.36
2022-10-11T19:25:26.840Z,11.45
2022-10-11T19:27:31.632Z,11.58
2022-10-11T19:29:34.941Z,11.64
2022-10-11T19:31:43.062Z,11.75
2022-10-11T19:33:49.399Z,11.78
2022-10-11T19:35:55.681Z,11.88
2022-10-11T19:37:58.944Z,11.98
2022-10-11T19:40:03.915Z,12.06
2022-10-11T19:42:07.469Z,12.08
2022-10-11T19:44:13.087Z,12.04
2022-10-11T19:46:37.873Z,12.10
2022-10-11T19:48:44.989Z,12.01
2022-10-11T19:50:48.522Z,11.99
2022-10-11T19:52:51.836Z,12.04
2022-10-11T19:54:55.164Z,12.07
2022-10-11T19:56:58.473Z,11.93
2022-10-11T19:59:02.445Z,12.05
2022-10-11T20:01:09.964Z,11.97
2022-10-11T20:03:13.313Z,11.93
2022-10-11T20:05:16.749Z,11.86
2022-10-11T20:07:20.145Z,11.84
2022-10-11T20:09:29.620Z,11.86
2022-10-11T20:11:33.975Z,11.79
2022-10-11T20:13:38.419Z,11.78
2022-10-11T20:15:42.025Z,11.73
2022-10-11T20:17:49.979Z,11.71
2022-10-11T20:19:53.482Z,11.74
2022-10-11T20:21:57.126Z,11.80
2022-10-11T20:24:02.277Z,11.80
2022-10-11T20:26:08.143Z,11.78
2022-10-11T20:28:11.630Z,11.81
2022-10-11T20:30:14.990Z,11.78
2022-10-11T20:32:18.464Z,11.73
2022-10-11T20:34:23.424Z,11.61
2022-10-11T20:36:29.468Z,11.61
2022-10-11T20:38:34.647Z,11.57
2022-10-11T20:40:41.182Z,11.53
2022-10-11T20:42:44.563Z,11.51
2022-10-11T20:44:49.334Z,11.53
2022-10-11T20:46:52.743Z,11.52
2022-10-11T20:49:01.342Z,11.49
2022-10-11T20:51:07.854Z,11.30
2022-10-11T20:53:16.164Z,11.44
2022-10-11T20:55:21.003Z,11.43
2022-10-11T20:57:24.470Z,11.39
2022-10-11T20:59:29.993Z,11.42
2022-10-11T21:01:35.591Z,11.40
2022-10-11T21:03:39.217Z,11.35
2022-10-11T21:05:42.917Z,11.36
2022-10-11T21:07:50.150Z,11.37
2022-10-11T21:09:55.420Z,11.33
2022-10-11T21:11:58.742Z,11.24
2022-10-11T21:14:05.345Z,11.29
2022-10-11T21:16:11.887Z,10.91
2022-10-11T21:18:15.964Z,11.20
2022-10-11T21:20:19.622Z,11.05
2022-10-11T21:22:22.931Z,11.00
2022-10-11T21:24:28.014Z,10.79
2022-10-11T21:26:31.893Z,10.59
2022-10-11T21:28:35.445Z,10.63
2022-10-11T21:30:38.949Z,10.62
2022-10-11T21:32:42.349Z,10.71
2022-10-11T21:34:46.317Z,10.79
2022-10-11T21:36:49.588Z,10.76
2022-10-11T21:38:53.976Z,10.62
2022-10-11T21:40:58.707Z,10.77
2022-10-11T21:43:02.137Z,10.79
2022-10-11T21:45:06.384Z,10.79
2022-10-11T21:47:10.167Z,10.65
2022-10-11T21:49:13.561Z,10.54
2022-10-11T21:51:20.669Z,10.54
2022-10-11T21:53:23.927Z,10.43
2022-10-11T21:55:28.131Z,10.59
2022-10-11T21:57:33.117Z,10.58
2022-10-11T21:59:36.471Z,10.47
2022-10-11T22:01:40.154Z,10.35
2022-10-11T22:03:43.536Z,10.31
2022-10-11T22:05:47.770Z,10.31
2022-10-11T22:07:51.077Z,10.29
2022-10-11T22:09:54.419Z,10.17
2022-10-11T22:11:58.063Z,10.11
2022-10-11T22:14:02.828Z,10.06
2022-10-11T22:16:07.432Z,10.01
2022-10-11T22:18:10.785Z,10.06
2022-10-11T22:20:14.503Z,10.08
2022-10-11T22:22:17.881Z,10.07
2022-10-11T22:24:21.217Z,10.03
2022-10-11T22:26:26.705Z,10.01
2022-10-11T22:28:30.098Z,9.99
2022-10-11T22:30:35.128Z,9.88
2022-10-11T22:32:38.647Z,9.92
2022-10-11T22:34:42.012Z,9.89
2022-10-11T22:36:45.295Z,9.91
2022-10-11T22:38:48.631Z,9.96
2022-10-11T22:40:52.379Z,9.96
2022-10-11T22:42:55.800Z,9.94
2022-10-11T22:44:59.122Z,9.32
2022-10-11T22:47:03.750Z,9.63
2022-10-11T22:49:07.324Z,9.51
2022-10-11T22:51:10.793Z,9.63
2022-10-11T22:53:15.189Z,9.65
2022-10-11T22:55:20.295Z,9.64
2022-10-11T22:57:23.827Z,9.31
2022-10-11T22:59:27.167Z,9.77
2022-10-11T23:01:30.451Z,9.77
2022-10-11T23:03:35.148Z,9.77
2022-10-11T23:05:38.603Z,9.72
2022-10-11T23:07:41.999Z,9.74
2022-10-11T23:09:45.330Z,9.73
2022-10-11T23:11:48.635Z,9.70
2022-10-11T23:13:53.107Z,9.64
2022-10-11T23:15:56.637Z,9.64
2022-10-11T23:17:59.951Z,9.53
2022-10-11T23:20:05.882Z,9.57
2022-10-11T23:22:09.319Z,9.41
2022-10-11T23:24:12.679Z,9.54
2022-10-11T23:26:17.690Z,9.56
2022-10-11T23:28:21.049Z,9.57
2022-10-11T23:30:24.322Z,9.57
2022-10-11T23:32:29.458Z,9.61
2022-10-11T23:34:32.883Z,9.63
2022-10-11T23:36:37.531Z,9.57
2022-10-11T23:38:40.889Z,9.41
2022-10-11T23:40:44.213Z,9.55
2022-10-11T23:42:47.550Z,9.50
2022-10-11T23:44:52.762Z,9.38
2022-10-11T23:46:56.102Z,9.38
2022-10-11T23:49:04.934Z,9.44
2022-10-11T23:51:08.677Z,9.38
2022-10-11T23:53:14.270Z,9.46
2022-10-11T23:55:18.084Z,9.31
2022-10-11T23:57:21.382Z,9.34
2022-10-11T23:59:24.696Z,9.39
